Time;durP1;ratioP1;P1;durP2;ratioP2;P2;SDS_P1;SDS_P2;PMS_P1;PMS_P2;Temp;Humidity;BMP_temperature;BMP_pressure;BME280_temperature;BME280_humidity;BME280_pressure;Samples;Min_cycle;Max_cycle;Signal;HPM_P1;HPM_P2
2023/11/07 00:01:28;;;;;;;8.93;3.40;;;8.50;99.90;;;;;;5049779;28;20060;-61
2023/11/07 00:03:55;;;;;;;11.10;3.13;;;8.50;99.90;;;;;;5061760;28;20098;-61
2023/11/07 00:06:23;;;;;;;5.70;3.10;;;8.50;99.90;;;;;;5050151;28;20508;-61
2023/11/07 00:08:50;;;;;;;5.25;2.50;;;8.50;99.90;;;;;;5058126;28;20036;-63
2023/11/07 00:11:18;;;;;;;4.03;2.45;;;8.50;99.90;;;;;;5053207;28;20045;-61
2023/11/07 00:13:47;;;;;;;5.03;2.50;;;8.50;99.90;;;;;;5047956;28;20387;-61
2023/11/07 00:16:15;;;;;;;9.45;2.95;;;8.40;99.90;;;;;;5058489;28;20052;-61
2023/11/07 00:18:42;;;;;;;5.18;2.17;;;8.40;99.90;;;;;;5050408;28;20118;-62
2023/11/07 00:21:09;;;;;;;9.00;2.97;;;8.40;99.90;;;;;;5053282;28;20105;-60
2023/11/07 00:23:37;;;;;;;9.65;2.55;;;8.40;99.90;;;;;;5050159;28;20124;-62
2023/11/07 00:26:05;;;;;;;6.70;2.33;;;8.40;99.90;;;;;;5051516;28;20041;-62
2023/11/07 00:28:32;;;;;;;8.68;3.28;;;8.40;99.90;;;;;;5050605;28;20033;-63
2023/11/07 00:30:58;;;;;;;5.10;3.20;;;8.40;99.90;;;;;;5048033;28;20044;-60
2023/11/07 00:33:25;;;;;;;9.63;2.53;;;8.40;99.90;;;;;;5033737;28;20556;-62
2023/11/07 00:35:52;;;;;;;3.38;1.70;;;8.40;99.90;;;;;;5033795;28;20047;-63
2023/11/07 00:38:19;;;;;;;8.88;2.20;;;8.40;99.90;;;;;;5050202;28;20053;-63
2023/11/07 00:40:47;;;;;;;8.00;2.30;;;8.40;99.90;;;;;;5032229;28;20048;-62
2023/11/07 00:43:14;;;;;;;9.38;3.35;;;8.40;99.90;;;;;;5030537;28;20091;-62
2023/11/07 00:45:41;;;;;;;3.92;1.63;;;8.40;99.90;;;;;;5053087;28;20103;-63
2023/11/07 00:48:08;;;;;;;6.85;2.10;;;8.40;99.90;;;;;;5037527;28;20552;-62
2023/11/07 00:50:36;;;;;;;7.60;2.28;;;8.40;99.90;;;;;;5041130;28;20156;-66
2023/11/07 00:53:03;;;;;;;8.63;2.40;;;8.40;99.90;;;;;;5050085;28;20495;-60
2023/11/07 00:55:30;;;;;;;10.82;2.53;;;8.40;99.90;;;;;;5024209;28;20049;-60
2023/11/07 00:57:57;;;;;;;3.85;2.20;;;8.40;99.90;;;;;;5048793;28;20053;-61
2023/11/07 01:00:24;;;;;;;6.05;2.83;;;8.40;99.90;;;;;;5055002;28;20046;-64
2023/11/07 01:02:51;;;;;;;4.97;2.08;;;8.40;99.90;;;;;;5019206;28;20517;-60
2023/11/07 01:05:19;;;;;;;6.03;2.67;;;8.40;99.90;;;;;;5047681;28;20057;-63
2023/11/07 01:07:46;;;;;;;4.68;2.17;;;8.40;99.90;;;;;;5047313;28;20037;-65
2023/11/07 01:10:13;;;;;;;5.15;1.88;;;8.40;99.90;;;;;;5054911;28;20116;-64
2023/11/07 01:12:40;;;;;;;4.38;2.08;;;8.40;99.90;;;;;;5037877;28;20475;-61
2023/11/07 01:15:08;;;;;;;5.18;2.05;;;8.40;99.90;;;;;;5054900;28;20094;-62
2023/11/07 01:17:35;;;;;;;7.63;2.00;;;8.40;99.90;;;;;;5052953;28;20095;-61
2023/11/07 01:20:04;;;;;;;6.90;2.10;;;8.40;99.90;;;;;;5050359;28;20037;-60
2023/11/07 01:22:32;;;;;;;5.25;1.60;;;8.40;99.90;;;;;;5053299;28;20039;-60
2023/11/07 01:24:58;;;;;;;4.65;2.45;;;8.40;99.90;;;;;;5055467;28;20048;-63
2023/11/07 01:27:25;;;;;;;6.00;2.30;;;8.40;99.90;;;;;;5051603;28;20479;-63
2023/11/07 01:29:52;;;;;;;10.52;3.20;;;8.40;99.90;;;;;;5056603;28;20106;-61
2023/11/07 01:32:19;;;;;;;6.97;2.95;;;8.40;99.90;;;;;;5052093;28;20119;-68
2023/11/07 01:34:46;;;;;;;7.85;2.13;;;8.40;99.90;;;;;;5053170;28;20049;-63
2023/11/07 01:37:13;;;;;;;4.13;2.20;;;8.40;99.90;;;;;;5056543;28;20403;-63
2023/11/07 01:39:40;;;;;;;6.68;3.45;;;8.40;99.90;;;;;;5053335;28;20040;-61
2023/11/07 01:42:08;;;;;;;6.85;2.20;;;8.40;99.90;;;;;;5040200;28;20053;-62
2023/11/07 01:44:37;;;;;;;8.77;2.47;;;8.40;99.90;;;;;;5057076;28;20409;-61
2023/11/07 01:47:04;;;;;;;7.03;2.65;;;8.40;99.90;;;;;;5032618;28;20048;-66
2023/11/07 01:49:31;;;;;;;10.55;2.28;;;8.40;99.90;;;;;;5056354;28;20041;-62
2023/11/07 01:51:59;;;;;;;4.50;1.73;;;8.40;99.90;;;;;;5051152;28;20075;-62
2023/11/07 01:54:27;;;;;;;2.63;1.80;;;8.30;99.90;;;;;;5051097;28;20128;-61
2023/11/07 01:56:54;;;;;;;6.65;2.13;;;8.30;99.90;;;;;;5052412;28;20500;-60
2023/11/07 01:59:22;;;;;;;3.83;1.60;;;8.30;99.90;;;;;;5040296;28;20055;-63
2023/11/07 02:01:52;;;;;;;6.53;2.00;;;8.30;99.90;;;;;;5041896;28;20064;-64
2023/11/07 02:04:21;;;;;;;9.33;2.43;;;8.30;99.90;;;;;;5050768;28;20136;-60
2023/11/07 02:06:48;;;;;;;1.90;1.60;;;8.30;99.90;;;;;;5050277;28;20808;-64
2023/11/07 02:09:15;;;;;;;8.32;1.83;;;8.30;99.90;;;;;;5051714;28;20041;-61
2023/11/07 02:11:43;;;;;;;5.85;2.00;;;8.30;99.90;;;;;;5055281;28;20095;-62
2023/11/07 02:14:35;;;;;;;4.97;1.92;;;8.30;99.90;;;;;;5033801;28;20044;-61
2023/11/07 02:17:05;;;;;;;5.97;2.47;;;8.30;99.90;;;;;;5033356;28;20037;-64
2023/11/07 02:19:32;;;;;;;5.88;2.35;;;8.30;99.90;;;;;;5032781;28;20038;-62
2023/11/07 02:22:01;;;;;;;5.22;1.92;;;8.30;99.90;;;;;;5050541;28;20193;-61
2023/11/07 02:24:28;;;;;;;5.10;2.85;;;8.30;99.90;;;;;;5052544;28;20420;-63
2023/11/07 02:26:56;;;;;;;6.32;3.05;;;8.30;99.90;;;;;;5051293;28;20045;-61
2023/11/07 02:29:24;;;;;;;5.10;2.45;;;8.30;99.90;;;;;;5037105;28;20041;-63
2023/11/07 02:31:52;;;;;;;5.13;2.45;;;8.30;99.90;;;;;;5055136;28;20049;-62
2023/11/07 02:34:19;;;;;;;8.80;2.65;;;8.30;99.90;;;;;;5057697;28;20116;-61
2023/11/07 02:36:46;;;;;;;8.55;2.83;;;8.30;99.90;;;;;;5049063;28;20069;-63
2023/11/07 02:39:13;;;;;;;3.67;2.05;;;8.30;99.90;;;;;;5053156;28;20043;-62
2023/11/07 02:41:41;;;;;;;6.28;2.05;;;8.30;99.90;;;;;;5038359;28;20080;-61
2023/11/07 02:44:11;;;;;;;4.95;2.13;;;8.40;99.90;;;;;;5050062;28;20110;-65
2023/11/07 02:46:38;;;;;;;8.05;2.95;;;8.30;99.90;;;;;;5051297;28;20094;-63
2023/11/07 02:49:06;;;;;;;7.03;2.75;;;8.40;99.90;;;;;;5046846;28;20076;-65
2023/11/07 02:51:33;;;;;;;6.25;2.60;;;8.30;99.90;;;;;;5053047;28;20037;-61
2023/11/07 02:54:00;;;;;;;3.35;2.53;;;8.30;99.90;;;;;;5053097;28;20053;-62
2023/11/07 02:56:28;;;;;;;4.85;3.05;;;8.30;99.90;;;;;;5051409;28;20072;-66
2023/11/07 02:58:56;;;;;;;3.42;2.72;;;8.30;99.90;;;;;;5041355;28;20060;-61
2023/11/07 03:01:22;;;;;;;4.88;2.50;;;8.30;99.90;;;;;;5051840;28;20049;-64
2023/11/07 03:03:50;;;;;;;10.75;2.33;;;8.30;99.90;;;;;;5055044;28;20052;-64
2023/11/07 03:06:18;;;;;;;7.47;3.13;;;8.30;99.90;;;;;;5033053;28;20430;-61
2023/11/07 03:08:45;;;;;;;12.07;3.33;;;8.30;99.90;;;;;;5032231;28;20041;-69
2023/11/07 03:11:12;;;;;;;10.27;2.85;;;8.30;99.90;;;;;;5037489;28;20052;-61
2023/11/07 03:13:39;;;;;;;10.30;3.08;;;8.30;99.90;;;;;;5042281;28;20045;-61
2023/11/07 03:16:07;;;;;;;16.27;2.90;;;8.30;99.90;;;;;;5035941;28;20839;-61
2023/11/07 03:18:34;;;;;;;10.52;3.95;;;8.30;99.90;;;;;;5042442;28;20040;-62
2023/11/07 03:21:07;;;;;;;6.32;2.88;;;8.30;99.90;;;;;;5050275;28;20044;-61
2023/11/07 03:23:35;;;;;;;4.35;2.65;;;8.30;99.90;;;;;;5028019;28;20626;-63
2023/11/07 03:26:03;;;;;;;6.80;2.40;;;8.30;99.90;;;;;;5039040;28;20041;-62
2023/11/07 03:28:30;;;;;;;5.30;2.42;;;8.30;99.90;;;;;;5050919;28;20029;-62
2023/11/07 03:30:57;;;;;;;7.70;2.35;;;8.30;99.90;;;;;;5055104;28;20122;-63
2023/11/07 03:33:25;;;;;;;3.35;2.45;;;8.30;99.90;;;;;;5050624;28;20045;-61
2023/11/07 03:35:52;;;;;;;5.90;2.95;;;8.30;99.90;;;;;;5049364;28;20059;-62
2023/11/07 03:38:19;;;;;;;6.00;3.55;;;8.30;99.90;;;;;;5053977;28;20040;-61
2023/11/07 03:40:46;;;;;;;5.22;2.58;;;8.30;99.90;;;;;;5048826;28;20530;-64
2023/11/07 03:43:13;;;;;;;5.68;2.33;;;8.30;99.90;;;;;;5035566;28;20064;-63
2023/11/07 03:45:40;;;;;;;5.38;2.95;;;8.30;99.90;;;;;;5049359;28;20616;-62
2023/11/07 03:48:07;;;;;;;5.82;2.53;;;8.30;99.90;;;;;;5049102;28;20136;-60
2023/11/07 03:50:35;;;;;;;12.05;3.03;;;8.30;99.90;;;;;;5061671;28;20040;-60
2023/11/07 03:53:02;;;;;;;7.90;2.75;;;8.30;99.90;;;;;;5032557;28;20697;-63
2023/11/07 03:55:29;;;;;;;6.60;2.00;;;8.30;99.90;;;;;;5053224;28;20091;-60
2023/11/07 03:57:56;;;;;;;3.33;2.00;;;8.30;99.90;;;;;;5053421;28;20040;-61
2023/11/07 04:00:23;;;;;;;4.82;1.75;;;8.30;99.90;;;;;;5044811;28;20140;-62
2023/11/07 04:02:51;;;;;;;3.53;1.70;;;8.40;99.90;;;;;;5047685;28;20467;-61
2023/11/07 04:05:18;;;;;;;4.43;3.05;;;8.30;99.90;;;;;;5057528;28;20513;-61
2023/11/07 04:07:46;;;;;;;6.18;2.20;;;8.40;99.90;;;;;;5051207;28;20065;-64
2023/11/07 04:10:13;;;;;;;5.78;1.90;;;8.40;99.90;;;;;;5050618;28;20425;-61
2023/11/07 04:12:40;;;;;;;3.17;1.90;;;8.40;99.90;;;;;;5048798;28;20053;-61
2023/11/07 04:15:09;;;;;;;8.38;2.10;;;8.40;99.90;;;;;;5042971;28;20120;-61
2023/11/07 04:17:36;;;;;;;8.93;2.25;;;8.40;99.90;;;;;;5049820;28;20048;-62
2023/11/07 04:20:04;;;;;;;5.18;3.28;;;8.40;99.90;;;;;;5049521;28;20037;-61
2023/11/07 04:22:31;;;;;;;4.97;2.30;;;8.40;99.90;;;;;;5027361;28;20471;-60
2023/11/07 04:24:59;;;;;;;7.15;2.58;;;8.40;99.90;;;;;;5046135;28;20552;-62
2023/11/07 04:27:26;;;;;;;8.15;2.15;;;8.30;99.90;;;;;;5048989;28;20590;-64
2023/11/07 04:29:54;;;;;;;3.22;2.38;;;8.40;99.90;;;;;;5054283;28;20048;-62
2023/11/07 04:32:21;;;;;;;3.35;2.20;;;8.30;99.90;;;;;;5048817;28;20094;-62
2023/11/07 04:34:48;;;;;;;8.07;2.33;;;8.40;99.90;;;;;;5048855;28;20048;-62
2023/11/07 04:37:15;;;;;;;12.85;3.78;;;8.40;99.90;;;;;;5047786;28;20045;-61
2023/11/07 04:39:42;;;;;;;5.88;2.13;;;8.40;99.90;;;;;;5050829;28;20041;-61
2023/11/07 04:42:09;;;;;;;5.63;2.50;;;8.40;99.90;;;;;;5049301;28;20071;-61
2023/11/07 04:44:36;;;;;;;4.15;2.45;;;8.40;99.90;;;;;;5046119;28;20643;-60
2023/11/07 04:47:05;;;;;;;3.08;1.92;;;8.40;99.90;;;;;;5047265;28;20475;-62
2023/11/07 04:49:33;;;;;;;4.90;2.10;;;8.40;99.90;;;;;;5056955;28;20037;-63
2023/11/07 04:52:01;;;;;;;5.68;2.90;;;8.40;99.90;;;;;;5042272;28;20632;-67
2023/11/07 04:54:29;;;;;;;4.80;1.90;;;8.40;99.90;;;;;;5048898;28;20547;-63
2023/11/07 04:56:57;;;;;;;4.45;1.80;;;8.40;99.90;;;;;;5049451;28;20079;-61
2023/11/07 04:59:24;;;;;;;8.23;2.42;;;8.40;99.90;;;;;;5046231;28;20743;-64
2023/11/07 05:01:52;;;;;;;4.82;2.03;;;8.40;99.90;;;;;;5048213;28;20473;-63
2023/11/07 05:04:20;;;;;;;8.43;1.67;;;8.40;99.90;;;;;;5048094;28;20059;-61
2023/11/07 05:06:47;;;;;;;5.75;2.00;;;8.40;99.90;;;;;;5046733;28;20056;-61
2023/11/07 05:09:14;;;;;;;4.78;2.00;;;8.40;99.90;;;;;;5046322;28;20056;-61
2023/11/07 05:11:43;;;;;;;3.08;2.75;;;8.50;99.90;;;;;;5053296;28;20056;-64
2023/11/07 05:14:10;;;;;;;4.82;2.50;;;8.50;99.90;;;;;;5049365;28;20063;-60
2023/11/07 05:16:38;;;;;;;4.18;1.80;;;8.50;99.90;;;;;;5051040;28;20155;-60
2023/11/07 05:19:07;;;;;;;7.97;2.58;;;8.50;99.90;;;;;;5046211;28;20041;-61
2023/11/07 05:21:36;;;;;;;15.10;3.17;;;8.40;99.90;;;;;;5054063;28;20059;-65
2023/11/07 05:24:04;;;;;;;7.13;2.78;;;8.40;99.90;;;;;;5047510;28;20048;-61
2023/11/07 05:26:31;;;;;;;4.53;2.13;;;8.40;99.90;;;;;;5046957;28;20040;-64
2023/11/07 05:28:59;;;;;;;2.78;2.55;;;8.40;99.90;;;;;;5057687;28;20052;-62
2023/11/07 05:31:26;;;;;;;5.97;2.80;;;8.40;99.90;;;;;;5048283;28;20045;-62
2023/11/07 05:33:53;;;;;;;4.80;2.60;;;8.30;99.90;;;;;;5058058;28;20115;-64
2023/11/07 05:36:20;;;;;;;7.78;3.97;;;8.30;99.90;;;;;;5048985;28;20529;-61
2023/11/07 05:38:47;;;;;;;6.28;3.20;;;8.30;99.90;;;;;;5046917;28;20045;-61
2023/11/07 05:41:14;;;;;;;8.48;2.88;;;8.30;99.90;;;;;;5053042;28;20041;-63
2023/11/07 05:43:42;;;;;;;7.57;3.08;;;8.30;99.90;;;;;;5048748;28;20052;-67
2023/11/07 05:46:09;;;;;;;6.25;3.50;;;8.30;99.90;;;;;;5048653;28;20140;-61
2023/11/07 05:48:37;;;;;;;7.28;3.35;;;8.30;99.90;;;;;;5046909;28;20037;-61
2023/11/07 05:51:04;;;;;;;8.38;3.60;;;8.30;99.90;;;;;;5048880;28;20462;-64
2023/11/07 05:53:31;;;;;;;7.50;3.47;;;8.20;99.90;;;;;;5044200;28;20052;-63
2023/11/07 05:55:59;;;;;;;4.68;2.97;;;8.30;99.90;;;;;;5051116;28;20124;-60
2023/11/07 05:58:26;;;;;;;4.18;3.60;;;8.20;99.90;;;;;;5048523;28;20048;-66
2023/11/07 06:00:55;;;;;;;4.93;2.83;;;8.30;99.90;;;;;;5056115;28;20049;-61
2023/11/07 06:03:22;;;;;;;5.70;3.75;;;8.20;99.90;;;;;;5051574;28;20041;-62
2023/11/07 06:05:49;;;;;;;11.88;3.80;;;8.20;99.90;;;;;;5047824;28;20053;-61
2023/11/07 06:08:16;;;;;;;4.70;4.05;;;8.20;99.90;;;;;;5055894;28;20047;-61
2023/11/07 06:10:43;;;;;;;6.13;4.18;;;8.20;99.90;;;;;;5057152;28;20040;-60
2023/11/07 06:13:10;;;;;;;5.15;3.55;;;8.20;99.90;;;;;;5054273;28;20048;-60
2023/11/07 06:15:37;;;;;;;4.95;3.67;;;8.20;99.90;;;;;;5058780;28;20119;-61
2023/11/07 06:18:05;;;;;;;5.78;3.22;;;8.20;99.90;;;;;;5052533;28;20491;-63
2023/11/07 06:20:32;;;;;;;7.22;3.38;;;8.20;99.90;;;;;;5058916;28;20048;-60
2023/11/07 06:22:59;;;;;;;5.65;3.78;;;8.20;99.90;;;;;;5049191;28;20060;-64
2023/11/07 06:25:26;;;;;;;8.70;3.85;;;8.20;99.90;;;;;;5051225;28;20115;-61
2023/11/07 06:27:53;;;;;;;4.35;3.45;;;8.20;99.90;;;;;;5049131;28;20065;-61
2023/11/07 06:30:21;;;;;;;3.85;2.80;;;8.20;99.90;;;;;;5049592;28;20414;-63
2023/11/07 06:32:49;;;;;;;6.15;2.88;;;8.20;99.90;;;;;;5049770;28;20438;-62
2023/11/07 06:35:16;;;;;;;6.45;3.38;;;8.20;99.90;;;;;;5051869;28;20041;-60
2023/11/07 06:37:43;;;;;;;7.93;2.90;;;8.20;99.90;;;;;;5051924;28;20068;-64
2023/11/07 06:40:13;;;;;;;4.47;2.67;;;8.20;99.90;;;;;;5052638;28;20033;-61
2023/11/07 06:42:45;;;;;;;9.40;3.25;;;8.20;99.90;;;;;;5051907;28;20495;-66
2023/11/07 06:45:14;;;;;;;10.45;3.58;;;8.20;99.90;;;;;;5049949;28;20463;-64
2023/11/07 06:47:45;;;;;;;4.07;3.00;;;8.20;99.90;;;;;;5053906;28;20043;-61
2023/11/07 06:50:15;;;;;;;8.77;2.97;;;8.20;99.90;;;;;;5046534;28;20037;-65
2023/11/07 06:52:48;;;;;;;9.65;3.22;;;8.20;99.90;;;;;;5054524;28;20494;-62
2023/11/07 06:55:15;;;;;;;5.38;2.92;;;8.20;99.90;;;;;;5053796;28;20206;-62
2023/11/07 06:57:42;;;;;;;5.20;2.80;;;8.30;99.90;;;;;;5056167;28;20041;-67
2023/11/07 07:00:10;;;;;;;10.00;4.22;;;8.30;99.90;;;;;;5051206;28;20462;-62
2023/11/07 07:02:40;;;;;;;2.50;2.30;;;8.30;99.90;;;;;;5051053;28;20037;-60
2023/11/07 07:05:12;;;;;;;8.43;4.65;;;8.30;99.90;;;;;;5049002;28;20810;-63
2023/11/07 07:07:41;;;;;;;15.15;3.63;;;8.30;99.90;;;;;;5047378;28;20041;-61
2023/11/07 07:10:09;;;;;;;10.30;3.25;;;8.40;99.90;;;;;;5048199;28;20515;-63
2023/11/07 07:12:37;;;;;;;3.28;2.80;;;8.40;99.90;;;;;;5038121;28;20048;-61
2023/11/07 07:15:09;;;;;;;5.80;3.10;;;8.40;99.90;;;;;;5050541;28;20074;-62
2023/11/07 07:17:36;;;;;;;8.02;3.58;;;8.40;99.90;;;;;;5051042;28;20042;-62
2023/11/07 07:20:11;;;;;;;13.50;3.80;;;8.40;99.90;;;;;;5050062;28;20357;-61
2023/11/07 07:22:41;;;;;;;6.13;3.80;;;8.40;99.90;;;;;;5048836;28;20053;-63
2023/11/07 07:25:15;;;;;;;6.00;3.75;;;8.40;99.90;;;;;;5056186;28;20371;-61
2023/11/07 07:27:46;;;;;;;4.97;3.30;;;8.40;99.90;;;;;;5053180;28;20033;-62
2023/11/07 07:30:20;;;;;;;8.35;4.05;;;8.40;99.90;;;;;;5051685;28;20906;-60
2023/11/07 07:32:50;;;;;;;7.20;3.80;;;8.50;99.90;;;;;;5047109;28;20025;-64
2023/11/07 07:35:20;;;;;;;8.00;4.03;;;8.50;99.90;;;;;;5043957;28;20037;-61
2023/11/07 07:37:52;;;;;;;7.20;4.28;;;8.50;99.90;;;;;;5058017;28;20044;-64
2023/11/07 07:40:25;;;;;;;8.77;4.38;;;8.50;99.90;;;;;;5046541;28;20053;-67
2023/11/07 07:42:54;;;;;;;7.60;5.03;;;8.50;99.90;;;;;;5051597;28;20479;-60
2023/11/07 07:45:23;;;;;;;12.80;5.87;;;8.50;99.90;;;;;;5050719;28;20403;-61
2023/11/07 07:47:50;;;;;;;7.82;4.57;;;8.50;99.90;;;;;;5055758;28;20384;-61
2023/11/07 07:50:18;;;;;;;7.63;4.95;;;8.60;99.90;;;;;;5030516;28;20066;-62
2023/11/07 07:52:48;;;;;;;19.70;4.70;;;8.50;99.90;;;;;;5049905;28;20412;-65
2023/11/07 07:55:19;;;;;;;4.55;4.05;;;8.50;99.90;;;;;;5049367;28;20414;-62
2023/11/07 07:58:00;;;;;;;6.13;3.25;;;8.60;99.90;;;;;;5049728;28;20117;-65
2023/11/07 08:00:30;;;;;;;9.43;4.15;;;8.60;99.90;;;;;;5046692;28;20045;-61
2023/11/07 08:02:59;;;;;;;9.05;4.53;;;8.60;99.90;;;;;;5051183;28;20499;-62
2023/11/07 08:05:28;;;;;;;6.35;3.20;;;8.60;99.90;;;;;;5054520;28;20106;-63
2023/11/07 08:07:55;;;;;;;6.80;4.93;;;8.60;99.90;;;;;;5049668;28;20045;-63
2023/11/07 08:10:22;;;;;;;9.25;5.18;;;8.60;99.90;;;;;;5053314;28;20052;-61
2023/11/07 08:12:50;;;;;;;8.88;4.68;;;8.60;99.90;;;;;;5054806;28;20043;-64
2023/11/07 08:15:18;;;;;;;4.93;3.65;;;8.60;99.90;;;;;;5052136;28;20107;-61
2023/11/07 08:17:46;;;;;;;23.83;3.95;;;8.60;99.90;;;;;;5052517;28;20044;-64
2023/11/07 08:20:19;;;;;;;8.93;4.15;;;8.60;99.90;;;;;;5042694;28;20037;-61
2023/11/07 08:22:47;;;;;;;7.72;3.67;;;8.70;99.90;;;;;;5048619;28;20712;-62
2023/11/07 08:25:18;;;;;;;7.78;4.00;;;8.70;99.90;;;;;;5056190;28;20045;-65
2023/11/07 08:27:45;;;;;;;4.85;3.83;;;8.70;99.90;;;;;;5048694;28;20050;-65
2023/11/07 08:30:14;;;;;;;6.95;3.00;;;8.70;99.90;;;;;;5048658;28;20413;-60
2023/11/07 08:32:42;;;;;;;8.48;3.03;;;8.70;99.90;;;;;;5052679;28;20037;-61
2023/11/07 08:35:11;;;;;;;6.82;3.22;;;8.70;99.90;;;;;;5048599;28;20095;-62
2023/11/07 08:37:39;;;;;;;7.85;2.80;;;8.70;99.90;;;;;;5050895;28;20487;-64
2023/11/07 08:40:08;;;;;;;6.28;3.58;;;8.70;99.90;;;;;;5049005;28;20094;-61
2023/11/07 08:42:42;;;;;;;8.65;3.17;;;8.80;99.90;;;;;;5051494;28;20052;-61
2023/11/07 08:45:15;;;;;;;5.80;3.05;;;8.80;99.90;;;;;;5051870;28;20037;-61
2023/11/07 08:47:47;;;;;;;4.75;2.72;;;8.80;99.90;;;;;;5048249;28;20394;-61
2023/11/07 08:50:14;;;;;;;5.75;3.20;;;8.80;99.90;;;;;;5039590;28;20037;-65
2023/11/07 08:52:42;;;;;;;4.57;3.25;;;8.80;99.90;;;;;;5041721;28;20127;-60
2023/11/07 08:55:10;;;;;;;3.17;2.25;;;8.80;99.90;;;;;;5047629;28;20491;-61
2023/11/07 08:57:40;;;;;;;7.32;2.63;;;8.80;99.90;;;;;;5050574;28;20512;-63
2023/11/07 09:00:11;;;;;;;5.43;3.15;;;8.80;99.90;;;;;;5048818;28;20048;-61
2023/11/07 09:02:39;;;;;;;6.03;2.97;;;8.80;99.90;;;;;;5033771;28;20099;-61
2023/11/07 09:05:07;;;;;;;4.00;2.67;;;8.80;99.90;;;;;;5050774;28;20458;-61
2023/11/07 09:07:35;;;;;;;8.55;2.70;;;8.80;99.90;;;;;;5047810;28;20414;-64
2023/11/07 09:10:02;;;;;;;4.75;2.65;;;8.80;99.90;;;;;;5053554;28;20037;-66
2023/11/07 09:12:30;;;;;;;9.77;3.50;;;8.90;99.90;;;;;;5047412;28;20033;-62
2023/11/07 09:14:57;;;;;;;7.20;2.97;;;8.90;99.90;;;;;;5060033;28;20045;-66
2023/11/07 09:17:24;;;;;;;4.00;2.10;;;8.90;99.90;;;;;;5054942;28;20121;-61
2023/11/07 09:19:51;;;;;;;6.85;2.10;;;8.90;99.90;;;;;;5048185;28;20055;-61
2023/11/07 09:22:18;;;;;;;7.90;2.45;;;9.00;99.90;;;;;;5048728;28;20043;-64
2023/11/07 09:24:45;;;;;;;6.00;1.70;;;9.10;99.90;;;;;;5047923;28;20041;-62
2023/11/07 09:27:12;;;;;;;4.20;1.80;;;9.10;99.90;;;;;;5051809;28;20082;-60
2023/11/07 09:29:39;;;;;;;6.95;2.42;;;9.20;99.90;;;;;;5049770;28;20048;-65
2023/11/07 09:32:07;;;;;;;3.65;2.35;;;9.20;99.90;;;;;;5054432;28;20135;-62
2023/11/07 09:34:39;;;;;;;3.10;1.63;;;9.20;99.90;;;;;;5058038;28;20037;-60
2023/11/07 09:37:11;;;;;;;4.10;1.77;;;9.20;99.90;;;;;;5052636;28;20094;-64
2023/11/07 09:39:41;;;;;;;4.00;2.13;;;9.30;99.90;;;;;;5054675;28;20048;-60
2023/11/07 09:42:08;;;;;;;2.65;1.80;;;9.30;99.90;;;;;;5055672;28;20430;-63
2023/11/07 09:44:39;;;;;;;2.67;1.65;;;9.40;99.90;;;;;;5049679;28;20040;-62
2023/11/07 09:47:06;;;;;;;7.22;2.10;;;9.40;99.90;;;;;;5051369;28;20033;-61
2023/11/07 09:49:33;;;;;;;2.63;2.13;;;9.40;99.90;;;;;;5052453;28;20045;-60
2023/11/07 09:52:05;;;;;;;7.57;3.85;;;9.40;99.90;;;;;;5049919;28;20130;-60
2023/11/07 09:54:33;;;;;;;3.35;1.83;;;9.40;99.90;;;;;;5054578;28;20049;-61
2023/11/07 09:57:08;;;;;;;7.45;2.17;;;9.40;99.90;;;;;;5052381;28;20044;-63
2023/11/07 09:59:52;;;;;;;8.02;2.08;;;9.40;99.90;;;;;;5048362;28;20494;-62
2023/11/07 10:02:21;;;;;;;3.55;2.15;;;9.40;99.90;;;;;;5052306;28;20041;-63
2023/11/07 10:04:49;;;;;;;4.05;2.30;;;9.40;99.90;;;;;;5052048;28;20123;-64
2023/11/07 10:07:16;;;;;;;6.68;2.40;;;9.40;99.90;;;;;;5055966;28;20099;-61
2023/11/07 10:09:44;;;;;;;3.85;2.10;;;9.40;99.90;;;;;;5052031;28;20068;-61
2023/11/07 10:12:18;;;;;;;5.03;2.10;;;9.30;99.90;;;;;;5056746;28;20041;-62
2023/11/07 10:14:45;;;;;;;5.35;2.05;;;9.30;99.90;;;;;;5051779;28;20045;-61
2023/11/07 10:17:22;;;;;;;2.95;1.85;;;9.30;99.90;;;;;;5055364;28;20037;-61
2023/11/07 10:20:05;;;;;;;4.00;1.85;;;9.30;99.90;;;;;;5058949;28;20037;-66
2023/11/07 10:22:45;;;;;;;6.32;2.15;;;9.30;99.90;;;;;;5050366;28;20582;-61
2023/11/07 10:25:32;;;;;;;;;;;9.40;99.90;;;;;;5055516;28;20044;-61
2023/11/07 10:28:07;;;;;;;2.25;2.00;;;9.40;99.90;;;;;;5055407;28;19925;-61
2023/11/07 10:30:37;;;;;;;3.05;2.38;;;9.40;99.90;;;;;;5051738;28;20037;-62
2023/11/07 10:33:04;;;;;;;6.72;2.15;;;9.50;99.90;;;;;;5052032;28;20055;-64
2023/11/07 10:35:32;;;;;;;2.45;1.60;;;9.50;99.90;;;;;;5052022;28;20144;-61
2023/11/07 10:38:10;;;;;;;3.67;2.42;;;9.60;99.90;;;;;;5058044;28;20068;-62
2023/11/07 10:40:40;;;;;;;4.18;2.30;;;9.60;99.90;;;;;;5055532;28;20360;-61
2023/11/07 10:43:07;;;;;;;4.10;2.00;;;9.60;99.90;;;;;;5049432;28;20048;-64
2023/11/07 10:45:36;;;;;;;3.88;2.35;;;9.60;99.90;;;;;;5055279;28;20148;-61
2023/11/07 10:48:05;;;;;;;5.03;1.95;;;9.60;99.90;;;;;;5052765;28;20035;-63
2023/11/07 10:50:35;;;;;;;4.43;1.95;;;9.60;99.90;;;;;;5045148;28;20123;-61
2023/11/07 10:53:02;;;;;;;5.43;2.15;;;9.60;99.90;;;;;;5053984;28;20068;-61
2023/11/07 10:55:29;;;;;;;2.85;1.88;;;9.60;99.90;;;;;;5052428;28;20051;-61
2023/11/07 10:57:59;;;;;;;2.35;1.80;;;9.60;99.90;;;;;;5055806;28;20044;-61
2023/11/07 11:00:32;;;;;;;2.17;1.88;;;9.50;99.90;;;;;;5050636;28;20049;-64
2023/11/07 11:03:04;;;;;;;4.00;1.73;;;9.50;99.90;;;;;;5046542;28;20052;-61
2023/11/07 11:05:33;;;;;;;2.67;2.00;;;9.50;99.90;;;;;;5053828;28;20056;-61
2023/11/07 11:08:04;;;;;;;2.38;1.35;;;9.50;99.90;;;;;;5050660;28;20533;-61
2023/11/07 11:10:33;;;;;;;3.58;2.30;;;9.50;99.90;;;;;;5050079;28;20107;-61
2023/11/07 11:13:02;;;;;;;3.83;1.90;;;9.50;99.90;;;;;;5056200;28;20844;-61
2023/11/07 11:15:29;;;;;;;5.00;2.22;;;9.50;99.90;;;;;;5046027;28;20041;-62
2023/11/07 11:18:13;;;;;;;2.72;1.80;;;9.50;99.90;;;;;;5049621;28;20107;-60
2023/11/07 11:21:02;;;;;;;4.82;2.40;;;9.50;99.90;;;;;;5050332;28;20120;-60
2023/11/07 11:23:53;;;;;;;8.52;2.63;;;9.50;99.90;;;;;;5048205;28;20041;-63
2023/11/07 11:26:48;;;;;;;6.05;2.50;;;9.50;99.90;;;;;;5024228;28;20064;-64
2023/11/07 11:29:26;;;;;;;4.05;2.53;;;9.50;99.90;;;;;;5035899;28;20052;-59
2023/11/07 11:31:54;;;;;;;4.22;2.20;;;9.50;99.90;;;;;;5050578;28;20048;-64
2023/11/07 11:34:25;;;;;;;5.00;2.42;;;9.50;99.90;;;;;;5051857;28;20071;-63
2023/11/07 11:36:57;;;;;;;4.05;2.50;;;9.50;99.90;;;;;;5055305;28;20145;-62
2023/11/07 11:39:30;;;;;;;5.70;2.30;;;9.50;99.90;;;;;;5055782;28;20086;-60
2023/11/07 11:41:59;;;;;;;2.67;1.98;;;9.50;99.90;;;;;;5048668;28;20099;-60
2023/11/07 11:44:26;;;;;;;4.78;2.47;;;9.60;99.90;;;;;;5052970;28;20119;-62
2023/11/07 11:46:55;;;;;;;4.05;1.90;;;9.60;99.90;;;;;;5050674;28;20052;-60
2023/11/07 11:49:23;;;;;;;5.60;2.40;;;9.70;99.90;;;;;;5049227;28;20048;-61
2023/11/07 11:51:51;;;;;;;3.22;2.15;;;9.70;99.90;;;;;;5054970;28;20056;-68
2023/11/07 11:54:24;;;;;;;5.32;3.35;;;9.60;99.90;;;;;;5051005;28;20067;-60
2023/11/07 11:56:51;;;;;;;7.65;3.47;;;9.70;99.90;;;;;;5046863;28;20061;-65
2023/11/07 11:59:29;;;;;;;7.72;2.10;;;9.60;99.90;;;;;;5050281;28;20048;-62
2023/11/07 12:02:04;;;;;;;3.00;1.95;;;9.60;99.90;;;;;;5049767;28;20032;-60
2023/11/07 12:04:40;;;;;;;4.05;3.05;;;9.60;99.90;;;;;;5045794;28;20140;-65
2023/11/07 12:07:07;;;;;;;6.50;3.00;;;9.60;99.90;;;;;;5024401;28;20065;-61
2023/11/07 12:09:47;;;;;;;3.15;1.90;;;9.70;99.90;;;;;;5041633;28;20063;-62
2023/11/07 12:12:15;;;;;;;9.00;2.35;;;9.70;99.90;;;;;;5021894;28;20060;-62
2023/11/07 12:14:56;;;;;;;6.97;2.50;;;9.70;99.90;;;;;;5025916;28;20040;-67
2023/11/07 12:17:26;;;;;;;8.18;2.15;;;9.70;99.90;;;;;;5014587;28;20486;-63
2023/11/07 12:20:08;;;;;;;3.97;1.73;;;9.70;99.90;;;;;;5030997;28;20049;-61
2023/11/07 12:22:36;;;;;;;3.30;2.45;;;9.70;99.90;;;;;;5032736;28;20419;-61
2023/11/07 12:25:07;;;;;;;4.65;3.15;;;9.70;99.90;;;;;;5033158;28;20626;-61
2023/11/07 12:27:34;;;;;;;6.63;3.35;;;9.70;99.90;;;;;;5035392;28;20045;-62
2023/11/07 12:30:17;;;;;;;5.78;2.78;;;9.70;99.90;;;;;;5039935;28;20049;-62
2023/11/07 12:32:45;;;;;;;5.68;2.80;;;9.70;99.90;;;;;;5027542;28;20121;-62
2023/11/07 12:35:19;;;;;;;11.52;2.55;;;9.80;99.90;;;;;;5025749;28;20050;-61
2023/11/07 12:37:47;;;;;;;5.65;1.95;;;9.80;99.90;;;;;;5034105;28;20041;-67
2023/11/07 12:40:15;;;;;;;6.13;2.60;;;9.80;99.90;;;;;;5029240;28;20124;-60
2023/11/07 12:42:53;;;;;;;5.65;2.55;;;9.80;99.90;;;;;;5033937;28;20047;-61
2023/11/07 12:45:34;;;;;;;3.67;2.22;;;9.80;99.90;;;;;;5028143;28;20045;-62
2023/11/07 12:48:09;;;;;;;4.03;2.38;;;9.70;99.90;;;;;;5029370;28;20072;-60
2023/11/07 12:50:46;;;;;;;4.22;1.88;;;9.70;99.90;;;;;;5031008;28;20100;-63
2023/11/07 12:53:17;;;;;;;6.82;2.42;;;9.70;99.90;;;;;;5027032;28;20033;-62
2023/11/07 12:55:51;;;;;;;;;;;9.70;99.90;;;;;;5034613;28;20049;-64
2023/11/07 12:58:29;;;;;;;9.60;2.20;;;9.70;99.90;;;;;;5031802;28;20015;-67
2023/11/07 13:01:03;;;;;;;6.55;2.20;;;9.70;99.90;;;;;;5032404;28;20521;-65
2023/11/07 13:03:34;;;;;;;5.15;2.28;;;9.80;99.90;;;;;;5025614;28;20080;-62
2023/11/07 13:06:10;;;;;;;3.47;2.38;;;9.80;99.90;;;;;;5043964;28;20056;-61
2023/11/07 13:08:46;;;;;;;2.72;2.08;;;9.80;99.90;;;;;;5057438;28;20068;-67